Time;durP1;ratioP1;P1;durP2;ratioP2;P2;SDS_P1;SDS_P2;PMS_P1;PMS_P2;Temp;Humidity;BMP_temperature;BMP_pressure;BME280_temperature;BME280_humidity;BME280_pressure;Samples;Min_cycle;Max_cycle;Signal;HPM_P1;HPM_P2
2022/06/14 00:01:57;;;;;;;12.20;2.38;;;13.20;99.90;;;;;;4983090;28;20041;-73
2022/06/14 00:04:22;;;;;;;7.88;1.98;;;13.20;99.90;;;;;;4985433;28;20026;-73
2022/06/14 00:06:48;;;;;;;8.25;1.98;;;13.20;99.90;;;;;;4984579;28;20026;-73
2022/06/14 00:09:14;;;;;;;4.80;1.80;;;13.20;99.90;;;;;;4978819;28;20038;-72
2022/06/14 00:11:40;;;;;;;6.53;2.03;;;13.10;99.90;;;;;;4983543;28;20404;-73
2022/06/14 00:14:09;;;;;;;9.82;2.13;;;13.20;99.90;;;;;;4981778;28;20034;-73
2022/06/14 00:16:36;;;;;;;6.55;2.17;;;13.20;99.90;;;;;;4983965;28;20108;-73
2022/06/14 00:19:06;;;;;;;9.00;1.73;;;13.10;99.90;;;;;;4981008;28;20030;-76
2022/06/14 00:21:32;;;;;;;8.63;1.83;;;13.10;99.90;;;;;;4978844;28;20108;-72
2022/06/14 00:24:00;;;;;;;6.00;1.80;;;13.10;99.90;;;;;;4977040;28;20046;-73
2022/06/14 00:26:25;;;;;;;5.40;1.70;;;13.00;99.90;;;;;;4977974;28;20030;-73
2022/06/14 00:28:51;;;;;;;7.18;1.85;;;13.10;99.90;;;;;;4980213;28;20517;-73
2022/06/14 00:31:23;;;;;;;8.13;1.70;;;13.00;99.90;;;;;;4965012;28;20023;-75
2022/06/14 00:33:49;;;;;;;6.97;2.05;;;13.00;99.90;;;;;;4985168;28;20026;-73
2022/06/14 00:36:28;;;;;;;6.20;1.70;;;13.00;99.90;;;;;;4963023;28;20518;-73
2022/06/14 00:38:55;;;;;;;9.82;2.22;;;13.10;99.90;;;;;;4987667;28;20030;-73
2022/06/14 00:41:41;;;;;;;9.60;2.45;;;13.10;99.90;;;;;;4981430;28;20037;-75
2022/06/14 00:44:12;;;;;;;4.13;1.45;;;13.10;99.90;;;;;;4987224;28;20041;-74
2022/06/14 00:46:56;;;;;;;;;;;13.10;99.90;;;;;;4981229;28;20022;-74
2022/06/14 00:49:56;;;;;;;7.32;1.80;;;13.00;99.90;;;;;;4967987;28;20004;-73
2022/06/14 00:52:28;;;;;;;3.80;1.95;;;13.00;99.90;;;;;;4982936;28;20038;-75
2022/06/14 00:54:59;;;;;;;6.20;1.70;;;13.00;99.90;;;;;;4982945;28;20026;-74
2022/06/14 00:57:28;;;;;;;5.55;1.58;;;13.00;99.90;;;;;;4986984;28;20190;-72
2022/06/14 01:00:11;;;;;;;8.30;2.17;;;12.90;99.90;;;;;;4979399;28;20037;-74
2022/06/14 01:02:44;;;;;;;6.70;2.03;;;13.00;99.90;;;;;;4976979;28;20116;-74
2022/06/14 01:05:17;;;;;;;7.88;2.40;;;13.00;99.90;;;;;;4980716;28;20069;-73
2022/06/14 01:07:47;;;;;;;12.98;2.63;;;13.10;99.90;;;;;;4983154;28;20035;-77
2022/06/14 01:10:18;;;;;;;10.50;2.30;;;13.00;99.90;;;;;;4978029;28;20026;-74
2022/06/14 01:12:47;;;;;;;3.75;1.67;;;13.00;99.90;;;;;;4982994;28;20110;-72
2022/06/14 01:15:19;;;;;;;8.77;2.30;;;13.10;99.90;;;;;;4977893;28;20031;-72
2022/06/14 01:17:48;;;;;;;7.05;1.95;;;13.00;99.90;;;;;;4982977;28;20105;-72
2022/06/14 01:20:17;;;;;;;7.20;1.77;;;13.00;99.90;;;;;;4982691;28;20034;-72
2022/06/14 01:22:44;;;;;;;6.85;1.70;;;13.10;99.90;;;;;;4985172;28;20133;-73
2022/06/14 01:25:10;;;;;;;8.75;1.85;;;13.10;99.90;;;;;;4984914;28;20034;-72
2022/06/14 01:27:39;;;;;;;10.75;2.05;;;13.00;99.90;;;;;;4980905;28;20022;-72
2022/06/14 01:30:27;;;;;;;6.65;1.75;;;13.00;99.90;;;;;;5001176;28;20640;-72
2022/06/14 01:33:19;;;;;;;7.30;2.10;;;13.10;99.90;;;;;;4980995;28;20565;-73
2022/06/14 01:35:52;;;;;;;7.28;2.05;;;13.00;99.90;;;;;;4968427;28;20406;-72
2022/06/14 01:38:19;;;;;;;5.72;1.48;;;13.00;99.90;;;;;;4978447;28;20131;-73
2022/06/14 01:41:05;;;;;;;9.05;1.77;;;12.90;99.90;;;;;;4983965;28;20036;-73
2022/06/14 01:44:03;;;;;;;7.03;1.65;;;13.00;99.90;;;;;;4985158;28;20486;-74
2022/06/14 01:46:36;;;;;;;7.32;1.55;;;13.00;99.90;;;;;;4980235;28;20034;-75
2022/06/14 01:52:31;;;;;;;8.38;2.13;;;12.90;99.90;;;;;;4984383;28;20564;-73
2022/06/14 01:55:15;;;;;;;10.40;2.03;;;12.90;99.90;;;;;;4985932;28;20023;-74
2022/06/14 01:57:56;;;;;;;5.75;1.63;;;12.90;99.90;;;;;;4977726;28;20054;-74
2022/06/14 02:00:46;;;;;;;6.88;1.92;;;13.00;99.90;;;;;;4982114;28;20041;-73
2022/06/14 02:06:39;;;;;;;10.45;1.60;;;13.00;99.90;;;;;;4981750;28;20471;-73
2022/06/14 02:09:11;;;;;;;6.75;1.83;;;13.00;99.90;;;;;;4981839;28;20038;-76
2022/06/14 02:11:37;;;;;;;7.20;1.65;;;13.00;99.90;;;;;;4987494;28;20026;-73
2022/06/14 02:14:31;;;;;;;10.75;1.92;;;12.90;99.90;;;;;;4981178;28;20101;-72
2022/06/14 02:17:24;;;;;;;7.25;2.25;;;12.90;99.90;;;;;;4981865;28;20030;-73
2022/06/14 02:20:01;;;;;;;6.57;2.00;;;12.90;99.90;;;;;;4983060;28;20041;-74
2022/06/14 02:22:42;;;;;;;7.78;1.80;;;12.90;99.90;;;;;;4984798;28;20026;-74
2022/06/14 02:25:17;;;;;;;6.97;1.70;;;12.80;99.90;;;;;;4969307;28;20026;-76
2022/06/14 02:28:08;;;;;;;7.72;1.75;;;12.90;99.90;;;;;;4955725;28;20165;-74
2022/06/14 02:30:47;;;;;;;5.07;1.45;;;12.80;99.90;;;;;;4980211;28;20643;-74
2022/06/14 02:33:24;;;;;;;6.30;1.90;;;12.80;99.90;;;;;;4985833;28;20030;-75
2022/06/14 02:36:24;;;;;;;7.63;2.28;;;12.80;99.90;;;;;;4986701;28;20165;-73
2022/06/14 02:38:56;;;;;;;8.63;2.33;;;12.80;99.90;;;;;;4952426;28;20069;-72
2022/06/14 02:41:35;;;;;;;8.00;1.77;;;12.70;99.90;;;;;;4983314;28;20109;-74
2022/06/14 02:44:21;;;;;;;8.23;2.05;;;12.80;99.90;;;;;;4986398;28;20034;-73
2022/06/14 02:46:57;;;;;;;8.20;2.10;;;12.70;99.90;;;;;;4990279;28;20482;-73
2022/06/14 02:49:38;;;;;;;6.43;1.83;;;12.70;99.90;;;;;;4986028;28;20037;-73
2022/06/14 02:52:21;;;;;;;6.63;2.15;;;12.70;99.90;;;;;;4992721;28;20030;-75
2022/06/14 02:55:07;;;;;;;6.53;1.95;;;12.70;99.90;;;;;;4995526;28;20449;-73
2022/06/14 02:57:41;;;;;;;5.20;1.80;;;12.70;99.90;;;;;;4996470;28;20097;-73
2022/06/14 03:00:13;;;;;;;10.80;2.30;;;12.70;99.90;;;;;;4974122;28;20061;-75
2022/06/14 03:02:46;;;;;;;4.72;1.73;;;12.70;99.90;;;;;;4998649;28;20042;-72
2022/06/14 03:05:18;;;;;;;6.40;2.00;;;12.70;99.90;;;;;;4985982;28;20039;-73
2022/06/14 03:07:51;;;;;;;7.40;1.70;;;12.70;99.90;;;;;;4984747;28;20037;-73
2022/06/14 03:10:17;;;;;;;12.25;2.13;;;12.70;99.90;;;;;;4984357;28;20030;-73
2022/06/14 03:12:59;;;;;;;6.32;1.80;;;12.80;99.90;;;;;;4988569;28;20109;-73
2022/06/14 03:15:36;;;;;;;8.85;1.92;;;12.70;99.90;;;;;;4985982;28;20022;-73
2022/06/14 03:18:12;;;;;;;8.85;2.08;;;12.70;99.90;;;;;;4986519;28;20117;-73
2022/06/14 03:20:52;;;;;;;7.63;2.05;;;12.70;99.90;;;;;;4987206;28;20037;-74
2022/06/14 03:23:20;;;;;;;5.65;2.03;;;12.70;99.90;;;;;;4988948;28;20105;-72
2022/06/14 03:26:13;;;;;;;5.47;1.77;;;12.70;99.90;;;;;;4987446;28;20088;-75
2022/06/14 03:29:11;;;;;;;7.60;1.70;;;12.70;99.90;;;;;;5001803;28;20133;-73
2022/06/14 03:32:01;;;;;;;7.47;1.80;;;12.80;99.90;;;;;;4981618;28;20031;-75
2022/06/14 03:34:42;;;;;;;5.47;2.50;;;12.80;99.90;;;;;;4989414;28;20031;-73
2022/06/14 03:37:08;;;;;;;5.38;1.65;;;12.80;99.90;;;;;;4977460;28;20027;-73
2022/06/14 03:39:39;;;;;;;5.60;1.75;;;12.80;99.90;;;;;;4983264;28;20023;-72
2022/06/14 03:42:08;;;;;;;5.70;1.92;;;12.80;99.90;;;;;;4983305;28;20026;-73
2022/06/14 03:44:34;;;;;;;7.35;1.98;;;12.90;99.90;;;;;;4982896;28;20035;-72
2022/06/14 03:47:09;;;;;;;13.45;2.33;;;12.90;99.90;;;;;;4984769;28;20022;-73
2022/06/14 03:49:40;;;;;;;8.10;2.67;;;12.80;99.90;;;;;;4967536;28;20113;-72
2022/06/14 03:52:13;;;;;;;;;;;12.80;99.90;;;;;;4985644;28;20018;-72
2022/06/14 03:54:53;;;;;;;8.32;2.42;;;12.90;99.90;;;;;;4985525;28;19952;-73
2022/06/14 03:57:32;;;;;;;7.25;1.95;;;12.90;99.90;;;;;;4985401;28;20026;-72
2022/06/14 04:00:16;;;;;;;10.73;2.40;;;12.90;99.90;;;;;;4980639;28;20552;-74
2022/06/14 04:03:19;;;;;;;7.93;2.28;;;12.90;99.90;;;;;;4985565;28;20169;-74
2022/06/14 04:06:10;;;;;;;8.43;2.47;;;13.00;99.90;;;;;;4994838;28;20030;-73
2022/06/14 04:08:36;;;;;;;6.72;2.20;;;13.00;99.90;;;;;;4985257;28;20039;-74
2022/06/14 04:11:42;;;;;;;7.50;2.50;;;13.00;99.90;;;;;;4984629;28;20388;-73
2022/06/14 04:14:28;;;;;;;8.13;1.95;;;13.10;99.90;;;;;;4983736;28;20018;-73
2022/06/14 04:17:09;;;;;;;9.13;2.60;;;13.10;99.90;;;;;;4984680;28;20030;-76
2022/06/14 04:20:13;;;;;;;8.43;2.63;;;13.20;99.90;;;;;;4978509;28;20035;-73
2022/06/14 04:22:53;;;;;;;5.68;1.98;;;13.20;99.90;;;;;;4985013;28;20030;-73
2022/06/14 04:25:34;;;;;;;11.07;2.97;;;13.10;99.90;;;;;;4985787;28;20099;-73
2022/06/14 04:28:09;;;;;;;7.07;2.83;;;13.20;99.90;;;;;;4985506;28;20037;-74
2022/06/14 04:31:16;;;;;;;9.75;2.60;;;13.10;99.90;;;;;;4982837;28;20081;-74
2022/06/14 04:34:08;;;;;;;6.22;2.50;;;13.20;99.90;;;;;;4979940;28;20121;-73
2022/06/14 04:36:47;;;;;;;8.65;2.50;;;13.20;99.90;;;;;;4974308;28;20502;-74
2022/06/14 04:39:24;;;;;;;6.65;2.50;;;13.30;99.90;;;;;;4983316;28;20038;-73
2022/06/14 04:42:05;;;;;;;8.68;2.83;;;13.40;99.90;;;;;;4984883;28;20101;-73
2022/06/14 04:44:52;;;;;;;8.48;2.42;;;13.50;99.90;;;;;;4983231;28;20022;-74
2022/06/14 04:47:33;;;;;;;7.20;2.33;;;13.60;99.90;;;;;;4978734;28;20052;-74
2022/06/14 04:50:04;;;;;;;8.85;2.60;;;13.70;99.90;;;;;;4983980;28;20034;-74
2022/06/14 04:52:55;;;;;;;5.78;2.30;;;13.70;99.90;;;;;;4985681;28;20061;-74
2022/06/14 04:55:34;;;;;;;11.02;2.28;;;13.80;99.90;;;;;;5000488;28;20517;-73
2022/06/14 04:58:11;;;;;;;9.30;2.70;;;13.90;99.90;;;;;;4966779;28;20054;-73
2022/06/14 05:00:46;;;;;;;8.70;2.47;;;13.90;99.90;;;;;;4979948;28;20114;-74
2022/06/14 05:03:36;;;;;;;7.10;2.40;;;13.90;99.90;;;;;;4976804;28;20038;-74
2022/06/14 05:06:08;;;;;;;7.63;2.80;;;13.80;99.90;;;;;;4984614;28;20066;-75
2022/06/14 05:08:48;;;;;;;7.55;2.20;;;13.80;99.90;;;;;;4985580;28;20426;-75
2022/06/14 05:11:18;;;;;;;10.40;2.20;;;13.80;99.90;;;;;;4974434;28;20022;-78
2022/06/14 05:13:53;;;;;;;10.90;2.72;;;13.80;99.90;;;;;;4983367;28;20022;-74
2022/06/14 05:16:31;;;;;;;5.68;2.15;;;13.90;99.90;;;;;;4972512;28;20018;-76
2022/06/14 05:19:16;;;;;;;9.68;2.40;;;13.90;99.90;;;;;;4968192;28;20076;-74
2022/06/14 05:21:55;;;;;;;7.53;2.38;;;13.90;99.90;;;;;;4975726;28;20045;-73
2022/06/14 05:24:21;;;;;;;8.60;2.03;;;14.10;99.90;;;;;;4972816;28;20054;-74
2022/06/14 05:27:18;;;;;;;7.70;2.20;;;14.10;99.90;;;;;;4982175;28;20053;-73
2022/06/14 05:29:48;;;;;;;6.82;1.90;;;14.20;99.90;;;;;;4979358;28;20030;-75
2022/06/14 05:32:26;;;;;;;11.85;2.30;;;14.20;99.90;;;;;;4983819;28;20084;-72
2022/06/14 05:35:17;;;;;;;7.65;2.72;;;14.30;99.90;;;;;;4976801;28;20030;-73
2022/06/14 05:37:47;;;;;;;9.50;2.42;;;14.40;99.90;;;;;;4984724;28;20077;-73
2022/06/14 05:40:34;;;;;;;13.20;2.95;;;14.30;99.90;;;;;;4975703;28;20116;-75
2022/06/14 05:43:11;;;;;;;8.82;2.53;;;14.30;99.90;;;;;;4979902;28;20029;-74
2022/06/14 05:45:48;;;;;;;10.23;3.10;;;14.30;99.90;;;;;;4987524;28;20074;-75
2022/06/14 05:48:27;;;;;;;8.77;2.35;;;14.30;99.90;;;;;;4963801;28;20023;-72
2022/06/14 05:50:55;;;;;;;9.82;2.85;;;14.30;99.90;;;;;;4987809;28;20030;-74
2022/06/14 05:53:39;;;;;;;10.02;2.70;;;14.30;99.90;;;;;;4985927;28;20014;-75
2022/06/14 05:56:35;;;;;;;8.15;2.20;;;14.30;99.90;;;;;;4981999;28;20117;-75
2022/06/14 05:59:11;;;;;;;11.90;3.63;;;14.40;99.90;;;;;;4981025;28;20035;-73
2022/06/14 06:01:47;;;;;;;10.25;2.90;;;14.30;99.90;;;;;;4981149;28;20030;-72
2022/06/14 06:04:58;;;;;;;9.23;2.55;;;14.30;99.90;;;;;;4983734;28;20062;-72
2022/06/14 06:07:31;;;;;;;9.88;2.40;;;14.20;99.90;;;;;;4967200;28;20030;-74
2022/06/14 06:10:31;;;;;;;8.95;2.47;;;14.20;99.90;;;;;;4981664;28;20104;-73
2022/06/14 06:13:08;;;;;;;12.65;2.85;;;14.20;99.90;;;;;;4980268;28;20034;-74
2022/06/14 06:15:51;;;;;;;11.45;2.53;;;14.30;99.90;;;;;;4981688;28;20046;-73
2022/06/14 06:18:24;;;;;;;9.77;2.15;;;14.30;99.90;;;;;;4988314;28;20041;-73
2022/06/14 06:21:01;;;;;;;7.30;2.40;;;14.40;99.90;;;;;;4984273;28;20033;-73
2022/06/14 06:23:32;;;;;;;7.95;2.30;;;14.50;99.90;;;;;;4986966;28;20101;-73
2022/06/14 06:25:58;;;;;;;8.65;1.75;;;14.50;99.90;;;;;;4989391;28;20077;-74
2022/06/14 06:28:34;;;;;;;6.93;2.20;;;14.60;99.90;;;;;;4982111;28;20031;-75
2022/06/14 06:31:05;;;;;;;10.15;2.55;;;14.70;99.90;;;;;;4973954;28;20510;-74
2022/06/14 06:33:35;;;;;;;11.03;2.80;;;14.80;99.90;;;;;;4976205;28;20022;-74
2022/06/14 06:36:32;;;;;;;8.27;1.92;;;15.00;99.90;;;;;;4986664;28;20119;-75
2022/06/14 06:39:24;;;;;;;8.77;1.70;;;15.10;99.90;;;;;;4971656;28;20034;-74
2022/06/14 06:41:55;;;;;;;13.73;2.85;;;15.20;99.90;;;;;;4986093;28;20186;-72
2022/06/14 06:44:39;;;;;;;12.23;2.45;;;15.30;99.90;;;;;;4980283;28;20081;-74
2022/06/14 06:47:20;;;;;;;6.68;2.10;;;15.30;99.90;;;;;;4977675;28;20089;-74
2022/06/14 06:50:04;;;;;;;7.82;2.17;;;15.30;99.90;;;;;;4979208;28;20014;-75
2022/06/14 06:53:07;;;;;;;9.60;2.15;;;15.40;99.90;;;;;;4986109;28;20030;-75
2022/06/14 06:56:04;;;;;;;7.53;2.47;;;15.40;99.90;;;;;;4966627;28;20050;-74
2022/06/14 06:58:51;;;;;;;8.55;2.47;;;15.30;99.90;;;;;;4982796;28;20043;-74
2022/06/14 07:01:28;;;;;;;10.85;1.90;;;15.30;99.90;;;;;;4980507;28;20069;-74
2022/06/14 07:04:06;;;;;;;11.27;2.20;;;15.30;99.90;;;;;;4977742;28;20491;-75
2022/06/14 07:06:54;;;;;;;9.48;2.45;;;15.30;99.90;;;;;;4981775;28;20406;-74
2022/06/14 07:09:26;;;;;;;6.35;1.80;;;15.20;99.90;;;;;;4983447;28;20030;-78
2022/06/14 07:11:57;;;;;;;11.20;2.60;;;15.20;99.90;;;;;;4982522;28;20561;-74
2022/06/14 07:14:27;;;;;;;6.38;1.85;;;15.40;99.90;;;;;;4982765;28;20061;-74
2022/06/14 07:17:29;;;;;;;12.63;2.95;;;15.50;99.90;;;;;;4983078;28;20053;-74
2022/06/14 07:20:11;;;;;;;9.10;2.67;;;15.60;99.90;;;;;;4962837;28;20038;-75
2022/06/14 07:22:39;;;;;;;8.57;2.08;;;15.70;99.90;;;;;;4985182;28;20030;-75
2022/06/14 07:25:16;;;;;;;9.82;2.17;;;15.80;99.90;;;;;;4981871;28;20107;-74
2022/06/14 07:28:11;;;;;;;9.27;2.05;;;15.90;99.90;;;;;;4986562;28;20026;-75
2022/06/14 07:30:44;;;;;;;8.32;2.35;;;15.90;99.90;;;;;;4984086;28;20030;-78
2022/06/14 07:33:11;;;;;;;10.05;2.00;;;16.00;99.90;;;;;;4966654;28;20374;-76
2022/06/14 07:36:03;;;;;;;9.90;2.85;;;16.10;99.90;;;;;;4987301;28;20022;-74
2022/06/14 07:38:54;;;;;;;6.35;1.63;;;16.10;99.90;;;;;;4984598;28;20034;-77
2022/06/14 07:41:37;;;;;;;14.35;2.40;;;16.10;99.90;;;;;;4987070;28;20033;-74
2022/06/14 07:44:19;;;;;;;7.95;1.95;;;16.20;99.90;;;;;;4987119;28;20038;-74
2022/06/14 07:46:48;;;;;;;11.13;2.08;;;16.30;99.90;;;;;;4984053;28;20062;-74
2022/06/14 07:49:39;;;;;;;7.40;1.83;;;16.40;99.90;;;;;;5005087;28;20030;-75
2022/06/14 07:52:17;;;;;;;7.75;1.88;;;16.60;99.90;;;;;;4984380;28;20073;-75
2022/06/14 07:54:47;;;;;;;7.07;2.00;;;16.60;99.90;;;;;;4988274;28;20023;-74
2022/06/14 07:57:22;;;;;;;9.57;2.05;;;16.60;99.90;;;;;;4985607;28;20465;-74
2022/06/14 07:59:55;;;;;;;6.30;1.50;;;16.60;99.90;;;;;;4984541;28;20084;-74
2022/06/14 08:02:34;;;;;;;8.27;1.73;;;16.60;99.90;;;;;;4983534;28;20045;-74
2022/06/14 08:05:10;;;;;;;8.70;2.10;;;16.50;99.90;;;;;;4985525;28;20034;-73
2022/06/14 08:07:36;;;;;;;10.65;2.58;;;16.50;99.90;;;;;;4986993;28;20118;-73
2022/06/14 08:10:18;;;;;;;7.93;2.00;;;16.50;99.90;;;;;;4985593;28;20053;-73
2022/06/14 08:12:52;;;;;;;6.28;1.80;;;16.60;99.90;;;;;;4982843;28;20026;-73
2022/06/14 08:15:39;;;;;;;8.45;1.77;;;16.90;99.90;;;;;;4985602;28;20030;-73
2022/06/14 08:18:31;;;;;;;5.10;1.65;;;17.00;99.90;;;;;;4984335;28;20077;-74
2022/06/14 08:21:06;;;;;;;4.90;1.60;;;17.00;99.80;;;;;;4984648;28;20422;-73
2022/06/14 08:23:37;;;;;;;7.80;1.63;;;16.90;99.80;;;;;;4982804;28;21232;-76
2022/06/14 08:26:18;;;;;;;6.25;1.85;;;16.90;99.90;;;;;;4985531;28;20436;-73
2022/06/14 08:29:03;;;;;;;11.50;1.90;;;16.80;99.90;;;;;;4965887;28;20027;-73
2022/06/14 08:31:52;;;;;;;9.00;1.63;;;16.80;99.70;;;;;;4962490;28;20034;-75
2022/06/14 08:34:25;;;;;;;7.20;1.38;;;16.90;99.40;;;;;;4986285;28;20026;-74
2022/06/14 08:37:03;;;;;;;9.00;2.20;;;17.00;99.90;;;;;;4982010;28;20113;-74
2022/06/14 08:39:42;;;;;;;5.88;1.52;;;17.10;99.80;;;;;;4985851;28;20862;-74
2022/06/14 08:42:35;;;;;;;10.60;2.40;;;17.20;99.90;;;;;;4966116;28;20233;-73
2022/06/14 08:45:15;;;;;;;7.82;1.70;;;17.30;99.90;;;;;;4984939;28;20018;-74
2022/06/14 08:48:10;;;;;;;8.30;1.88;;;17.30;99.70;;;;;;4983350;28;20078;-75
2022/06/14 08:50:59;;;;;;;7.68;1.65;;;17.20;99.90;;;;;;4984907;28;20105;-77
2022/06/14 08:53:51;;;;;;;4.90;1.48;;;17.30;99.60;;;;;;4989745;28;20034;-74
2022/06/14 08:56:49;;;;;;;6.05;1.70;;;17.30;99.90;;;;;;4984632;28;20102;-73
2022/06/14 08:59:23;;;;;;;6.38;1.67;;;17.40;99.50;;;;;;4984122;28;20121;-74
2022/06/14 09:02:17;;;;;;;6.55;1.73;;;17.50;99.80;;;;;;4981557;28;20038;-75
2022/06/14 09:05:01;;;;;;;9.05;2.35;;;17.80;99.10;;;;;;4986012;28;20113;-74
2022/06/14 09:08:04;;;;;;;6.60;1.83;;;18.10;98.00;;;;;;4986897;28;20034;-74
2022/06/14 09:10:43;;;;;;;4.47;1.50;;;18.20;98.20;;;;;;4984717;28;20453;-77
2022/06/14 09:13:34;;;;;;;6.78;1.80;;;18.10;98.30;;;;;;4989228;28;20026;-75
2022/06/14 09:16:08;;;;;;;7.43;1.65;;;18.10;97.50;;;;;;4976305;28;20495;-74
2022/06/14 09:18:39;;;;;;;3.60;1.30;;;17.90;97.90;;;;;;4985077;28;20462;-75
2022/06/14 09:21:07;;;;;;;6.88;1.67;;;17.70;98.10;;;;;;4988186;28;20038;-75
2022/06/14 09:24:12;;;;;;;6.38;1.38;;;17.80;97.50;;;;;;4981951;28;20101;-75
2022/06/14 09:26:38;;;;;;;5.78;1.65;;;17.90;96.20;;;;;;4964859;28;20104;-76
2022/06/14 09:29:24;;;;;;;4.05;1.40;;;18.10;95.70;;;;;;4984454;28;20463;-75
2022/06/14 09:32:23;;;;;;;3.33;1.40;;;18.20;94.00;;;;;;4982739;28;20025;-75
2022/06/14 09:35:04;;;;;;;5.40;1.30;;;18.20;93.30;;;;;;4989192;28;20026;-74
2022/06/14 09:37:44;;;;;;;4.77;1.07;;;18.30;93.90;;;;;;4990183;28;20089;-74
2022/06/14 09:40:28;;;;;;;5.25;1.30;;;18.20;93.80;;;;;;4979284;28;20289;-74
2022/06/14 09:43:16;;;;;;;5.47;1.35;;;18.10;94.50;;;;;;4983248;28;20034;-74
2022/06/14 09:46:12;;;;;;;5.15;1.33;;;18.10;95.10;;;;;;4978726;28;20030;-74
2022/06/14 09:49:08;;;;;;;5.00;1.63;;;18.00;94.40;;;;;;4985363;28;20033;-73
2022/06/14 09:51:52;;;;;;;5.47;1.60;;;17.80;94.40;;;;;;4988872;28;20116;-73
2022/06/14 09:54:55;;;;;;;7.07;1.55;;;17.80;94.80;;;;;;4987765;28;20026;-74
2022/06/14 09:57:57;;;;;;;7.38;1.50;;;17.80;95.60;;;;;;4990746;28;20022;-74
2022/06/14 10:00:33;;;;;;;10.13;2.35;;;18.00;95.00;;;;;;4990027;28;20041;-74
2022/06/14 10:03:34;;;;;;;5.82;1.55;;;18.30;94.00;;;;;;4984000;28;20065;-74
2022/06/14 10:06:20;;;;;;;6.43;1.70;;;18.50;93.40;;;;;;4984123;28;20035;-76
2022/06/14 10:08:59;;;;;;;3.60;1.40;;;18.70;93.60;;;;;;4976802;28;20042;-77
2022/06/14 10:11:39;;;;;;;4.68;1.30;;;18.60;93.30;;;;;;4981874;28;20109;-73
2022/06/14 10:14:23;;;;;;;7.30;1.52;;;18.50;93.60;;;;;;4964364;28;20028;-74
2022/06/14 10:17:16;;;;;;;8.10;1.77;;;18.30;93.60;;;;;;4986537;28;20030;-74
2022/06/14 10:20:05;;;;;;;7.15;1.77;;;18.20;94.80;;;;;;4985107;28;20022;-71
2022/06/14 10:23:06;;;;;;;5.30;1.42;;;18.10;95.40;;;;;;4982299;28;20030;-73
2022/06/14 10:28:11;;;;;;;4.33;1.60;;;18.00;95.20;;;;;;4977130;28;20202;-72
2022/06/14 10:28:44;;;;;;;7.35;1.63;;;18.00;95.10;;;;;;4982192;28;20498;-72
2022/06/14 10:31:31;;;;;;;8.18;1.45;;;18.20;94.30;;;;;;4974872;28;20043;-73
2022/06/14 10:34:13;;;;;;;4.50;1.55;;;18.20;94.50;;;;;;4982086;28;20034;-72
2022/06/14 10:37:17;;;;;;;4.88;1.65;;;18.30;94.60;;;;;;4961677;28;20032;-73
2022/06/14 10:40:05;;;;;;;7.10;1.67;;;18.40;94.10;;;;;;4982643;28;20446;-74
2022/06/14 10:42:43;;;;;;;4.18;1.63;;;18.40;94.00;;;;;;4983320;28;20038;-74
2022/06/14 10:45:21;;;;;;;5.70;1.52;;;18.30;94.30;;;;;;4984684;28;20040;-73
2022/06/14 10:48:07;;;;;;;7.97;2.10;;;18.40;94.60;;;;;;4982777;28;20050;-74
2022/06/14 10:50:57;;;;;;;5.47;1.33;;;18.50;93.30;;;;;;4984546;28;20530;-73
2022/06/14 10:53:58;;;;;;;5.28;1.60;;;18.70;93.10;;;;;;4980329;28;20034;-73
2022/06/14 10:56:49;;;;;;;9.48;2.10;;;18.80;93.30;;;;;;4986674;28;20026;-73
2022/06/14 10:59:32;;;;;;;4.30;1.70;;;18.80;93.00;;;;;;4973013;28;20042;-73
2022/06/14 11:02:23;;;;;;;7.00;1.45;;;19.00;93.30;;;;;;4988514;28;20463;-74
2022/06/14 11:05:01;;;;;;;5.63;1.23;;;19.20;93.20;;;;;;4989381;28;20026;-74
2022/06/14 11:07:35;;;;;;;7.22;1.73;;;19.30;93.00;;;;;;4989269;28;20788;-73
2022/06/14 11:10:29;;;;;;;8.82;1.45;;;19.40;92.80;;;;;;4980188;28;20165;-74
2022/06/14 11:13:13;;;;;;;7.43;1.58;;;19.50;92.10;;;;;;4987802;28;20022;-74
2022/06/14 11:15:50;;;;;;;6.78;1.30;;;19.60;91.50;;;;;;4986039;28;20018;-73
2022/06/14 11:18:49;;;;;;;4.20;1.60;;;19.70;92.00;;;;;;4982603;28;20037;-74
2022/06/14 11:21:36;;;;;;;3.83;1.52;;;19.80;91.20;;;;;;4988210;28;20034;-74
2022/06/14 11:24:10;;;;;;;5.45;1.58;;;19.80;91.90;;;;;;4985095;28;20060;-73
2022/06/14 11:26:58;;;;;;;6.75;2.08;;;19.80;92.10;;;;;;4977669;28;20038;-74
2022/06/14 11:30:00;;;;;;;4.15;1.50;;;19.90;91.30;;;;;;4986624;28;20130;-74
2022/06/14 11:32:44;;;;;;;3.40;1.23;;;19.90;90.90;;;;;;4985498;28;20105;-73
2022/06/14 11:35:44;;;;;;;4.32;1.23;;;19.60;91.10;;;;;;4988627;28;20113;-73
2022/06/14 11:38:47;;;;;;;3.33;1.20;;;19.40;91.10;;;;;;4987457;28;20039;-73
2022/06/14 11:41:14;;;;;;;2.35;1.10;;;19.40;91.90;;;;;;4986732;28;20072;-74
2022/06/14 11:43:58;;;;;;;2.58;0.80;;;19.70;91.10;;;;;;4988885;28;20022;-73
2022/06/14 11:46:40;;;;;;;3.90;1.02;;;19.80;90.50;;;;;;4993723;28;20034;-74
2022/06/14 11:49:17;;;;;;;3.70;1.00;;;19.70;89.80;;;;;;4996208;28;20038;-74
2022/06/14 11:52:09;;;;;;;6.28;1.65;;;19.50;89.90;;;;;;4988541;28;20023;-74
2022/06/14 11:54:51;;;;;;;7.45;1.65;;;19.30;90.60;;;;;;4991053;28;20023;-74
2022/06/14 11:57:42;;;;;;;6.68;2.03;;;19.20;91.70;;;;;;4987752;28;20019;-74
2022/06/14 12:00:25;;;;;;;4.70;1.30;;;19.20;91.10;;;;;;4984720;28;20022;-75
2022/06/14 12:02:56;;;;;;;3.97;1.30;;;19.30;91.90;;;;;;4990481;28;20053;-74
2022/06/14 12:06:22;;;;;;;2.78;0.93;;;20.00;91.40;;;;;;4986201;28;20064;-74
2022/06/14 12:09:18;;;;;;;2.53;1.10;;;20.80;90.30;;;;;;4968972;28;20113;-75
2022/06/14 12:11:44;;;;;;;4.35;1.08;;;20.90;85.90;;;;;;4984524;28;20029;-74
2022/06/14 12:14:44;;;;;;;2.28;0.90;;;20.70;87.50;;;;;;4989777;28;20026;-73
2022/06/14 12:17:43;;;;;;;2.85;0.98;;;20.60;87.80;;;;;;4979546;28;20041;-74
2022/06/14 12:20:21;;;;;;;3.28;1.02;;;20.30;87.60;;;;;;4982214;28;20045;-76
2022/06/14 12:22:59;;;;;;;2.88;1.20;;;20.10;88.70;;;;;;4976737;28;20034;-77
2022/06/14 12:28:46;;;;;;;3.40;1.05;;;19.80;88.40;;;;;;4987356;28;20062;-74
2022/06/14 12:31:42;;;;;;;4.28;1.20;;;19.60;90.50;;;;;;4981248;28;20321;-73
2022/06/14 12:34:16;;;;;;;4.00;1.00;;;19.60;90.70;;;;;;4981514;28;20066;-75
2022/06/14 12:37:06;;;;;;;4.75;1.40;;;19.60;90.30;;;;;;4965739;28;20113;-73
2022/06/14 12:39:55;;;;;;;3.35;1.05;;;19.70;90.60;;;;;;4974878;28;20368;-74
2022/06/14 12:42:27;;;;;;;4.50;1.08;;;20.00;90.80;;;;;;4985636;28;20049;-75
2022/06/14 12:45:03;;;;;;;3.35;1.10;;;20.50;89.80;;;;;;4988768;28;20022;-74
2022/06/14 12:48:10;;;;;;;2.90;1.27;;;20.60;88.30;;;;;;4982040;28;20097;-74
2022/06/14 12:50:43;;;;;;;5.00;1.20;;;20.40;89.50;;;;;;4982571;28;20034;-73
2022/06/14 12:53:34;;;;;;;5.38;1.30;;;20.20;90.20;;;;;;4973207;28;20092;-76
2022/06/14 12:56:06;;;;;;;2.63;1.07;;;20.20;90.70;;;;;;4977891;28;20491;-74
2022/06/14 12:58:52;;;;;;;4.65;1.17;;;20.10;90.80;;;;;;4984715;28;20702;-74
2022/06/14 13:02:00;;;;;;;4.82;1.38;;;20.20;90.30;;;;;;4986117;28;20117;-73
2022/06/14 13:04:55;;;;;;;3.63;1.13;;;20.20;89.10;;;;;;4984650;28;20431;-75
2022/06/14 13:07:41;;;;;;;4.25;1.20;;;19.90;90.00;;;;;;4981451;28;20056;-75
2022/06/14 13:10:21;;;;;;;4.07;1.15;;;19.80;90.50;;;;;;4982831;28;20050;-74
2022/06/14 13:13:14;;;;;;;5.15;1.10;;;19.60;90.50;;;;;;4983115;28;20030;-74
2022/06/14 13:15:59;;;;;;;5.55;1.70;;;19.50;91.30;;;;;;4985583;28;20041;-74
2022/06/14 13:18:30;;;;;;;4.68;1.63;;;19.30;90.70;;;;;;4968295;28;20062;-73
2022/06/14 13:21:15;;;;;;;;;;;19.30;91.90;;;;;;4989171;28;20096;-73
2022/06/14 13:24:00;;;;;;;3.75;1.52;;;19.30;92.10;;;;;;4967796;28;20000;-73
2022/06/14 13:26:44;;;;;;;4.90;1.73;;;19.40;92.00;;;;;;4986132;28;20119;-73
2022/06/14 13:29:28;;;;;;;5.20;1.50;;;19.60;92.00;;;;;;4984021;28;20435;-74
2022/06/14 13:32:16;;;;;;;5.63;1.40;;;20.00;92.00;;;;;;4987514;28;20023;-75
2022/06/14 13:34:48;;;;;;;3.85;1.05;;;20.30;90.20;;;;;;4986727;28;20515;-74
2022/06/14 13:37:53;;;;;;;2.80;1.00;;;20.20;89.50;;;;;;4984799;28;20065;-74
2022/06/14 13:40:39;;;;;;;2.30;1.10;;;20.00;90.50;;;;;;4989463;28;20053;-75
2022/06/14 13:43:16;;;;;;;4.22;1.17;;;19.70;91.10;;;;;;4984004;28;20315;-73
2022/06/14 13:46:13;;;;;;;3.45;1.33;;;19.50;91.80;;;;;;4982593;28;20138;-74
2022/06/14 13:48:52;;;;;;;3.83;1.10;;;19.20;92.70;;;;;;4986183;28;20038;-74
2022/06/14 13:51:46;;;;;;;4.82;1.30;;;19.10;93.60;;;;;;4986228;28;20026;-74
2022/06/14 13:54:31;;;;;;;2.30;1.10;;;19.00;93.90;;;;;;4984865;28;20493;-75
2022/06/14 13:57:28;;;;;;;5.93;1.70;;;19.10;94.10;;;;;;4988012;28;20168;-75
2022/06/14 14:00:13;;;;;;;3.63;1.00;;;19.30;93.60;;;;;;4969309;28;20041;-74
2022/06/14 14:02:58;;;;;;;4.80;1.33;;;19.50;93.00;;;;;;4977019;28;20475;-74
2022/06/14 14:05:53;;;;;;;5.20;1.80;;;19.90;92.80;;;;;;4976163;28;20042;-74
2022/06/14 14:08:25;;;;;;;2.55;1.40;;;20.30;92.60;;;;;;4961966;28;20046;-75
2022/06/14 14:10:51;;;;;;;3.67;1.23;;;20.40;92.60;;;;;;4979702;28;20018;-73